CheckWX is a tool to help pilots better visualize weather data.  It is not intended as a substitute for an official pre-flight weather briefing.

02:55:00 UTC

KVGT METAR
North Las Vegas Airport
Las Vegas, Nevada, USA
Current

1 hour ago

KVGT 060153Z 00000KT 10SM CLR 12/07 A3018 RMK AO2 SLPNO T01220072
Observed
Dec-6 @ 01:53 UTC
Visibility
10 SM
Flight Rules
VFR
Cloud Levels
  • Clear skies
Temperature
12°C / 54°F
Dewpoint
C / 45°F
Humidity
72%
Altimeter
30.18" Hg
Pressure
1022.02 hPa
Previous

2 hours ago

KVGT 060053Z 08006KT 10SM CLR 13/07 A3016 RMK AO2 SLPNO T01280072
Observed
Dec-6 @ 00:53 UTC
Wind
  • 080° at 6 KTS
Visibility
10 SM
Flight Rules
VFR
Cloud Levels
  • Clear skies
Temperature
13°C / 55°F
Dewpoint
C / 45°F
Humidity
67%
Altimeter
30.16" Hg
Pressure
1021.32 hPa
Previous

3 hours ago

KVGT 052353Z 09009KT 10SM CLR 13/07 A3015 RMK AO2 SLPNO T01330072 10161 20122 53007
Observed
Dec-5 @ 23:53 UTC
Wind
  • 090° at 9 KTS
Visibility
10 SM
Flight Rules
VFR
Cloud Levels
  • Clear skies
Temperature
13°C / 55°F
Dewpoint
C / 45°F
Humidity
67%
Altimeter
30.15" Hg
Pressure
1021.02 hPa